sensor_id;sensor_type;location;lat;lon;timestamp;temperature;humidity
56542;DHT22;42438;53.174;6.730;2022-07-11T00:01:36;15.20;99.90
56542;DHT22;42438;53.174;6.730;2022-07-11T00:04:07;15.10;99.90
56542;DHT22;42438;53.174;6.730;2022-07-11T00:06:38;15.10;99.90
56542;DHT22;42438;53.174;6.730;2022-07-11T00:09:08;15.10;99.90
56542;DHT22;42438;53.174;6.730;2022-07-11T00:11:39;15.10;99.90
56542;DHT22;42438;53.174;6.730;2022-07-11T00:14:10;15.10;99.90
56542;DHT22;42438;53.174;6.730;2022-07-11T00:16:41;15.00;99.90
56542;DHT22;42438;53.174;6.730;2022-07-11T00:19:11;15.00;99.90
56542;DHT22;42438;53.174;6.730;2022-07-11T00:21:42;15.00;99.90
56542;DHT22;42438;53.174;6.730;2022-07-11T00:24:13;15.00;99.90
56542;DHT22;42438;53.174;6.730;2022-07-11T00:26:43;15.00;99.90
56542;DHT22;42438;53.174;6.730;2022-07-11T00:29:14;14.90;99.90
56542;DHT22;42438;53.174;6.730;2022-07-11T00:31:45;14.90;99.90
56542;DHT22;42438;53.174;6.730;2022-07-11T00:34:16;14.90;99.90
56542;DHT22;42438;53.174;6.730;2022-07-11T00:36:48;14.90;99.90
56542;DHT22;42438;53.174;6.730;2022-07-11T00:39:18;15.00;99.90
56542;DHT22;42438;53.174;6.730;2022-07-11T00:41:49;14.90;99.90
56542;DHT22;42438;53.174;6.730;2022-07-11T00:44:20;15.00;99.90
56542;DHT22;42438;53.174;6.730;2022-07-11T00:46:50;14.90;99.90
56542;DHT22;42438;53.174;6.730;2022-07-11T00:49:21;14.90;99.90
56542;DHT22;42438;53.174;6.730;2022-07-11T00:51:52;15.00;99.90
56542;DHT22;42438;53.174;6.730;2022-07-11T00:54:23;15.00;99.90
56542;DHT22;42438;53.174;6.730;2022-07-11T00:56:54;15.00;99.90
56542;DHT22;42438;53.174;6.730;2022-07-11T00:59:25;14.90;99.90
56542;DHT22;42438;53.174;6.730;2022-07-11T01:01:57;14.90;99.90
56542;DHT22;42438;53.174;6.730;2022-07-11T01:04:28;14.90;99.90
56542;DHT22;42438;53.174;6.730;2022-07-11T01:06:58;14.90;99.90
56542;DHT22;42438;53.174;6.730;2022-07-11T01:09:30;14.90;99.90
56542;DHT22;42438;53.174;6.730;2022-07-11T01:12:02;14.90;99.90
56542;DHT22;42438;53.174;6.730;2022-07-11T01:14:33;14.90;99.90
56542;DHT22;42438;53.174;6.730;2022-07-11T01:17:04;14.80;99.90
56542;DHT22;42438;53.174;6.730;2022-07-11T01:19:34;14.80;99.90
56542;DHT22;42438;53.174;6.730;2022-07-11T01:22:05;14.80;99.90
56542;DHT22;42438;53.174;6.730;2022-07-11T01:24:36;14.80;99.90
56542;DHT22;42438;53.174;6.730;2022-07-11T01:27:07;14.80;99.90
56542;DHT22;42438;53.174;6.730;2022-07-11T01:29:39;14.80;99.90
56542;DHT22;42438;53.174;6.730;2022-07-11T01:32:10;14.80;99.90
56542;DHT22;42438;53.174;6.730;2022-07-11T01:34:41;14.80;99.90
56542;DHT22;42438;53.174;6.730;2022-07-11T01:37:12;14.80;99.90
56542;DHT22;42438;53.174;6.730;2022-07-11T01:39:42;14.80;99.90
56542;DHT22;42438;53.174;6.730;2022-07-11T01:42:13;14.80;99.90
56542;DHT22;42438;53.174;6.730;2022-07-11T01:44:44;14.80;99.90
56542;DHT22;42438;53.174;6.730;2022-07-11T01:47:15;14.80;99.90
56542;DHT22;42438;53.174;6.730;2022-07-11T01:49:46;14.80;99.90
56542;DHT22;42438;53.174;6.730;2022-07-11T01:52:16;14.80;99.90
56542;DHT22;42438;53.174;6.730;2022-07-11T01:54:47;14.80;99.90
56542;DHT22;42438;53.174;6.730;2022-07-11T01:57:18;14.80;99.90
56542;DHT22;42438;53.174;6.730;2022-07-11T01:59:48;14.80;99.90
56542;DHT22;42438;53.174;6.730;2022-07-11T02:02:19;14.80;99.90
56542;DHT22;42438;53.174;6.730;2022-07-11T02:04:50;14.80;99.90
56542;DHT22;42438;53.174;6.730;2022-07-11T02:07:22;14.80;99.90
56542;DHT22;42438;53.174;6.730;2022-07-11T02:10:12;14.80;99.90
56542;DHT22;42438;53.174;6.730;2022-07-11T02:12:43;14.80;99.90
56542;DHT22;42438;53.174;6.730;2022-07-11T02:15:13;14.70;99.90
56542;DHT22;42438;53.174;6.730;2022-07-11T02:17:44;14.80;99.90
56542;DHT22;42438;53.174;6.730;2022-07-11T02:20:15;14.80;99.90
56542;DHT22;42438;53.174;6.730;2022-07-11T02:22:45;14.80;99.90
56542;DHT22;42438;53.174;6.730;2022-07-11T02:25:17;14.80;99.90
56542;DHT22;42438;53.174;6.730;2022-07-11T02:27:48;14.80;99.90
56542;DHT22;42438;53.174;6.730;2022-07-11T02:30:20;14.80;99.90
56542;DHT22;42438;53.174;6.730;2022-07-11T02:32:51;14.70;99.90
56542;DHT22;42438;53.174;6.730;2022-07-11T02:35:22;14.70;99.90
56542;DHT22;42438;53.174;6.730;2022-07-11T02:37:52;14.80;99.90
56542;DHT22;42438;53.174;6.730;2022-07-11T02:40:23;14.80;99.90
56542;DHT22;42438;53.174;6.730;2022-07-11T02:42:54;14.80;99.90
56542;DHT22;42438;53.174;6.730;2022-07-11T02:45:25;14.70;99.90
56542;DHT22;42438;53.174;6.730;2022-07-11T02:47:56;14.80;99.90
56542;DHT22;42438;53.174;6.730;2022-07-11T02:50:27;14.80;99.90
56542;DHT22;42438;53.174;6.730;2022-07-11T02:52:58;14.80;99.90
56542;DHT22;42438;53.174;6.730;2022-07-11T02:55:29;14.80;99.90
56542;DHT22;42438;53.174;6.730;2022-07-11T02:57:59;14.80;99.90
56542;DHT22;42438;53.174;6.730;2022-07-11T03:00:31;14.80;99.90
56542;DHT22;42438;53.174;6.730;2022-07-11T03:03:01;14.80;99.90
56542;DHT22;42438;53.174;6.730;2022-07-11T03:05:33;14.80;99.90
56542;DHT22;42438;53.174;6.730;2022-07-11T03:08:04;14.80;99.90
56542;DHT22;42438;53.174;6.730;2022-07-11T03:10:34;14.80;99.90
56542;DHT22;42438;53.174;6.730;2022-07-11T03:13:05;14.80;99.90
56542;DHT22;42438;53.174;6.730;2022-07-11T03:15:36;14.70;99.90
56542;DHT22;42438;53.174;6.730;2022-07-11T03:18:06;14.80;99.90
56542;DHT22;42438;53.174;6.730;2022-07-11T03:20:37;14.80;99.90
56542;DHT22;42438;53.174;6.730;2022-07-11T03:23:08;14.80;99.90
56542;DHT22;42438;53.174;6.730;2022-07-11T03:25:39;14.80;99.90
56542;DHT22;42438;53.174;6.730;2022-07-11T03:28:09;14.70;99.90
56542;DHT22;42438;53.174;6.730;2022-07-11T03:30:40;14.70;99.90
56542;DHT22;42438;53.174;6.730;2022-07-11T03:33:11;14.70;99.90
56542;DHT22;42438;53.174;6.730;2022-07-11T03:35:41;14.80;99.90
56542;DHT22;42438;53.174;6.730;2022-07-11T03:38:12;14.80;99.90
56542;DHT22;42438;53.174;6.730;2022-07-11T03:40:47;14.80;99.90
56542;DHT22;42438;53.174;6.730;2022-07-11T03:43:18;14.80;99.90
56542;DHT22;42438;53.174;6.730;2022-07-11T03:45:48;14.80;99.90
56542;DHT22;42438;53.174;6.730;2022-07-11T03:48:19;14.80;99.90
56542;DHT22;42438;53.174;6.730;2022-07-11T03:50:50;14.80;99.90
56542;DHT22;42438;53.174;6.730;2022-07-11T03:53:21;14.80;99.90
56542;DHT22;42438;53.174;6.730;2022-07-11T03:55:51;14.80;99.90
56542;DHT22;42438;53.174;6.730;2022-07-11T03:58:22;14.80;99.90
56542;DHT22;42438;53.174;6.730;2022-07-11T04:00:53;14.80;99.90
56542;DHT22;42438;53.174;6.730;2022-07-11T04:03:24;14.80;99.90
56542;DHT22;42438;53.174;6.730;2022-07-11T04:05:56;14.80;99.90
56542;DHT22;42438;53.174;6.730;2022-07-11T04:08:26;14.80;99.90
56542;DHT22;42438;53.174;6.730;2022-07-11T04:10:57;14.80;99.90
56542;DHT22;42438;53.174;6.730;2022-07-11T04:13:29;14.80;99.90
56542;DHT22;42438;53.174;6.730;2022-07-11T04:16:00;14.80;99.90
56542;DHT22;42438;53.174;6.730;2022-07-11T04:18:31;14.80;99.90
56542;DHT22;42438;53.174;6.730;2022-07-11T04:21:01;14.80;99.90
56542;DHT22;42438;53.174;6.730;2022-07-11T04:23:32;14.80;99.90
56542;DHT22;42438;53.174;6.730;2022-07-11T04:26:03;14.80;99.90
56542;DHT22;42438;53.174;6.730;2022-07-11T04:28:34;14.80;99.90
56542;DHT22;42438;53.174;6.730;2022-07-11T04:31:04;14.80;99.90
56542;DHT22;42438;53.174;6.730;2022-07-11T04:33:35;14.80;99.90
56542;DHT22;42438;53.174;6.730;2022-07-11T04:36:06;14.80;99.90
56542;DHT22;42438;53.174;6.730;2022-07-11T04:38:37;14.80;99.90
56542;DHT22;42438;53.174;6.730;2022-07-11T04:41:07;14.80;99.90
56542;DHT22;42438;53.174;6.730;2022-07-11T04:43:38;14.80;99.90
56542;DHT22;42438;53.174;6.730;2022-07-11T04:46:09;14.80;99.90
56542;DHT22;42438;53.174;6.730;2022-07-11T04:48:39;14.80;99.90
56542;DHT22;42438;53.174;6.730;2022-07-11T04:51:10;14.80;99.90
56542;DHT22;42438;53.174;6.730;2022-07-11T04:53:41;14.80;99.90
56542;DHT22;42438;53.174;6.730;2022-07-11T04:56:12;14.90;99.90
56542;DHT22;42438;53.174;6.730;2022-07-11T04:58:43;15.00;99.90
56542;DHT22;42438;53.174;6.730;2022-07-11T05:01:14;15.10;99.90
56542;DHT22;42438;53.174;6.730;2022-07-11T05:03:45;15.20;99.90
56542;DHT22;42438;53.174;6.730;2022-07-11T05:06:15;15.20;99.90
56542;DHT22;42438;53.174;6.730;2022-07-11T05:08:46;15.20;99.90
56542;DHT22;42438;53.174;6.730;2022-07-11T05:11:17;15.30;99.90
56542;DHT22;42438;53.174;6.730;2022-07-11T05:13:48;15.20;99.90
56542;DHT22;42438;53.174;6.730;2022-07-11T05:16:18;15.20;99.90
56542;DHT22;42438;53.174;6.730;2022-07-11T05:18:49;15.20;99.90
56542;DHT22;42438;53.174;6.730;2022-07-11T05:21:20;15.20;99.90
56542;DHT22;42438;53.174;6.730;2022-07-11T05:23:53;15.30;99.90
56542;DHT22;42438;53.174;6.730;2022-07-11T05:26:23;15.30;99.90
56542;DHT22;42438;53.174;6.730;2022-07-11T05:28:54;15.40;99.90
56542;DHT22;42438;53.174;6.730;2022-07-11T05:31:25;15.40;99.90
56542;DHT22;42438;53.174;6.730;2022-07-11T05:33:55;15.50;99.90
56542;DHT22;42438;53.174;6.730;2022-07-11T05:36:26;15.50;99.90
56542;DHT22;42438;53.174;6.730;2022-07-11T05:38:57;15.60;99.90
56542;DHT22;42438;53.174;6.730;2022-07-11T05:41:27;15.60;99.90
56542;DHT22;42438;53.174;6.730;2022-07-11T05:43:58;15.60;99.90
56542;DHT22;42438;53.174;6.730;2022-07-11T05:46:29;15.60;99.90
56542;DHT22;42438;53.174;6.730;2022-07-11T05:48:59;15.70;99.90
56542;DHT22;42438;53.174;6.730;2022-07-11T05:51:30;15.80;99.90
56542;DHT22;42438;53.174;6.730;2022-07-11T05:54:00;15.80;99.90
56542;DHT22;42438;53.174;6.730;2022-07-11T05:56:31;15.80;99.90
56542;DHT22;42438;53.174;6.730;2022-07-11T05:59:02;15.90;99.90
56542;DHT22;42438;53.174;6.730;2022-07-11T06:01:33;16.00;99.90
56542;DHT22;42438;53.174;6.730;2022-07-11T06:04:04;16.00;99.90
56542;DHT22;42438;53.174;6.730;2022-07-11T06:06:34;16.10;99.90
56542;DHT22;42438;53.174;6.730;2022-07-11T06:09:06;16.20;99.90
56542;DHT22;42438;53.174;6.730;2022-07-11T06:11:37;16.20;99.90
56542;DHT22;42438;53.174;6.730;2022-07-11T06:14:07;16.40;99.90
56542;DHT22;42438;53.174;6.730;2022-07-11T06:16:38;16.50;99.90
56542;DHT22;42438;53.174;6.730;2022-07-11T06:19:09;16.50;99.90
56542;DHT22;42438;53.174;6.730;2022-07-11T06:21:40;16.60;99.90
56542;DHT22;42438;53.174;6.730;2022-07-11T06:24:10;16.50;99.90
56542;DHT22;42438;53.174;6.730;2022-07-11T06:26:41;16.40;99.90
56542;DHT22;42438;53.174;6.730;2022-07-11T06:29:11;16.40;99.90
56542;DHT22;42438;53.174;6.730;2022-07-11T06:31:42;16.40;99.90
56542;DHT22;42438;53.174;6.730;2022-07-11T06:34:13;16.40;99.90
56542;DHT22;42438;53.174;6.730;2022-07-11T06:36:44;16.40;99.90
56542;DHT22;42438;53.174;6.730;2022-07-11T06:39:15;16.50;99.90
56542;DHT22;42438;53.174;6.730;2022-07-11T06:41:45;16.60;99.90
56542;DHT22;42438;53.174;6.730;2022-07-11T06:44:16;17.00;99.90
56542;DHT22;42438;53.174;6.730;2022-07-11T06:46:48;16.80;99.90
56542;DHT22;42438;53.174;6.730;2022-07-11T06:49:18;16.80;99.90
56542;DHT22;42438;53.174;6.730;2022-07-11T06:51:49;17.00;99.90
56542;DHT22;42438;53.174;6.730;2022-07-11T06:54:20;17.00;99.90
56542;DHT22;42438;53.174;6.730;2022-07-11T06:56:50;16.90;99.90
56542;DHT22;42438;53.174;6.730;2022-07-11T06:59:21;17.00;99.90
56542;DHT22;42438;53.174;6.730;2022-07-11T07:01:52;17.00;99.90
56542;DHT22;42438;53.174;6.730;2022-07-11T07:04:22;17.20;99.90
56542;DHT22;42438;53.174;6.730;2022-07-11T07:06:53;17.30;99.90
56542;DHT22;42438;53.174;6.730;2022-07-11T07:09:23;17.40;99.90
56542;DHT22;42438;53.174;6.730;2022-07-11T07:11:54;17.40;99.90
56542;DHT22;42438;53.174;6.730;2022-07-11T07:14:25;17.20;99.90
56542;DHT22;42438;53.174;6.730;2022-07-11T07:16:56;17.10;99.90
56542;DHT22;42438;53.174;6.730;2022-07-11T07:19:26;17.10;99.90
56542;DHT22;42438;53.174;6.730;2022-07-11T07:21:57;17.20;99.90
56542;DHT22;42438;53.174;6.730;2022-07-11T07:24:28;17.30;99.90
56542;DHT22;42438;53.174;6.730;2022-07-11T07:26:59;17.30;99.90
56542;DHT22;42438;53.174;6.730;2022-07-11T07:29:30;17.30;99.90
56542;DHT22;42438;53.174;6.730;2022-07-11T07:32:01;17.30;99.90
56542;DHT22;42438;53.174;6.730;2022-07-11T07:34:33;17.20;99.90
56542;DHT22;42438;53.174;6.730;2022-07-11T07:37:03;17.10;99.90
56542;DHT22;42438;53.174;6.730;2022-07-11T07:39:34;17.00;99.90
56542;DHT22;42438;53.174;6.730;2022-07-11T07:42:05;16.90;99.90
56542;DHT22;42438;53.174;6.730;2022-07-11T07:44:36;17.00;99.90
56542;DHT22;42438;53.174;6.730;2022-07-11T07:47:07;17.10;99.90
56542;DHT22;42438;53.174;6.730;2022-07-11T07:49:38;17.10;99.90
56542;DHT22;42438;53.174;6.730;2022-07-11T07:52:08;17.20;99.90
56542;DHT22;42438;53.174;6.730;2022-07-11T07:54:39;17.30;99.90
56542;DHT22;42438;53.174;6.730;2022-07-11T07:57:10;17.40;99.90
56542;DHT22;42438;53.174;6.730;2022-07-11T07:59:40;17.40;99.90
56542;DHT22;42438;53.174;6.730;2022-07-11T08:02:11;17.40;99.90
56542;DHT22;42438;53.174;6.730;2022-07-11T08:04:42;17.40;99.90
56542;DHT22;42438;53.174;6.730;2022-07-11T08:07:12;17.40;99.90
56542;DHT22;42438;53.174;6.730;2022-07-11T08:09:43;17.40;99.90
56542;DHT22;42438;53.174;6.730;2022-07-11T08:12:13;17.50;99.90
56542;DHT22;42438;53.174;6.730;2022-07-11T08:14:44;17.50;99.90
56542;DHT22;42438;53.174;6.730;2022-07-11T08:17:15;17.60;99.90
56542;DHT22;42438;53.174;6.730;2022-07-11T08:19:46;17.60;99.90
56542;DHT22;42438;53.174;6.730;2022-07-11T08:22:16;17.50;99.90
56542;DHT22;42438;53.174;6.730;2022-07-11T08:24:47;17.60;99.90
56542;DHT22;42438;53.174;6.730;2022-07-11T08:27:17;17.70;99.90
56542;DHT22;42438;53.174;6.730;2022-07-11T08:29:48;17.80;99.90
56542;DHT22;42438;53.174;6.730;2022-07-11T08:32:19;17.80;99.90
56542;DHT22;42438;53.174;6.730;2022-07-11T08:34:50;17.90;99.90
56542;DHT22;42438;53.174;6.730;2022-07-11T08:37:20;18.20;99.90
56542;DHT22;42438;53.174;6.730;2022-07-11T08:39:51;18.50;99.90
56542;DHT22;42438;53.174;6.730;2022-07-11T08:42:23;18.70;99.90
56542;DHT22;42438;53.174;6.730;2022-07-11T08:44:58;19.20;99.90
56542;DHT22;42438;53.174;6.730;2022-07-11T08:47:30;19.20;99.90
56542;DHT22;42438;53.174;6.730;2022-07-11T08:50:01;19.30;99.90
56542;DHT22;42438;53.174;6.730;2022-07-11T08:52:33;19.20;99.90
56542;DHT22;42438;53.174;6.730;2022-07-11T08:55:05;19.10;99.90
56542;DHT22;42438;53.174;6.730;2022-07-11T08:57:38;18.90;99.90
56542;DHT22;42438;53.174;6.730;2022-07-11T09:00:09;18.70;99.90
56542;DHT22;42438;53.174;6.730;2022-07-11T09:02:42;18.50;99.90
56542;DHT22;42438;53.174;6.730;2022-07-11T09:05:13;18.50;99.90
56542;DHT22;42438;53.174;6.730;2022-07-11T09:07:45;18.50;99.90
56542;DHT22;42438;53.174;6.730;2022-07-11T09:10:17;18.40;99.90
56542;DHT22;42438;53.174;6.730;2022-07-11T09:13:05;18.60;99.90
56542;DHT22;42438;53.174;6.730;2022-07-11T09:15:44;18.60;99.90
56542;DHT22;42438;53.174;6.730;2022-07-11T09:18:33;18.80;99.90
56542;DHT22;42438;53.174;6.730;2022-07-11T09:21:12;19.00;99.90
56542;DHT22;42438;53.174;6.730;2022-07-11T09:24:04;19.20;99.90
56542;DHT22;42438;53.174;6.730;2022-07-11T09:26:53;19.30;99.90
56542;DHT22;42438;53.174;6.730;2022-07-11T09:29:24;19.30;99.90
56542;DHT22;42438;53.174;6.730;2022-07-11T09:31:55;19.20;99.90
56542;DHT22;42438;53.174;6.730;2022-07-11T09:34:26;19.10;99.90
56542;DHT22;42438;53.174;6.730;2022-07-11T09:37:01;19.00;99.90
56542;DHT22;42438;53.174;6.730;2022-07-11T09:39:31;19.00;99.90
56542;DHT22;42438;53.174;6.730;2022-07-11T09:42:02;19.00;99.90
56542;DHT22;42438;53.174;6.730;2022-07-11T09:44:33;19.10;99.90
56542;DHT22;42438;53.174;6.730;2022-07-11T09:47:09;19.10;99.90
56542;DHT22;42438;53.174;6.730;2022-07-11T09:49:40;19.10;99.90
56542;DHT22;42438;53.174;6.730;2022-07-11T09:52:16;19.00;99.90
56542;DHT22;42438;53.174;6.730;2022-07-11T09:54:58;18.90;99.90
56542;DHT22;42438;53.174;6.730;2022-07-11T09:57:35;18.60;99.90
56542;DHT22;42438;53.174;6.730;2022-07-11T10:00:10;18.60;99.90
56542;DHT22;42438;53.174;6.730;2022-07-11T10:02:44;18.50;99.90
56542;DHT22;42438;53.174;6.730;2022-07-11T10:05:15;18.50;99.90
56542;DHT22;42438;53.174;6.730;2022-07-11T10:07:46;18.50;99.90
56542;DHT22;42438;53.174;6.730;2022-07-11T10:10:17;18.60;99.90
56542;DHT22;42438;53.174;6.730;2022-07-11T10:12:48;18.60;99.90
56542;DHT22;42438;53.174;6.730;2022-07-11T10:15:30;18.60;99.90
56542;DHT22;42438;53.174;6.730;2022-07-11T10:20:56;18.60;99.90
56542;DHT22;42438;53.174;6.730;2022-07-11T10:23:49;18.70;99.90
56542;DHT22;42438;53.174;6.730;2022-07-11T10:29:47;18.90;99.90
56542;DHT22;42438;53.174;6.730;2022-07-11T10:32:19;18.90;99.90
56542;DHT22;42438;53.174;6.730;2022-07-11T10:37:53;18.90;99.90
56542;DHT22;42438;53.174;6.730;2022-07-11T10:40:45;18.90;99.90
56542;DHT22;42438;53.174;6.730;2022-07-11T10:43:36;18.80;99.90
56542;DHT22;42438;53.174;6.730;2022-07-11T10:46:10;18.80;99.90
56542;DHT22;42438;53.174;6.730;2022-07-11T10:51:34;18.70;99.90
56542;DHT22;42438;53.174;6.730;2022-07-11T11:02:58;18.70;99.90
56542;DHT22;42438;53.174;6.730;2022-07-11T11:11:34;18.70;99.90
56542;DHT22;42438;53.174;6.730;2022-07-11T11:16:48;19.10;99.90
56542;DHT22;42438;53.174;6.730;2022-07-11T11:19:53;19.10;99.90
56542;DHT22;42438;53.174;6.730;2022-07-11T11:22:24;18.90;99.90
56542;DHT22;42438;53.174;6.730;2022-07-11T11:24:56;18.80;99.90
56542;DHT22;42438;53.174;6.730;2022-07-11T11:27:27;18.80;99.90
56542;DHT22;42438;53.174;6.730;2022-07-11T11:29:58;18.90;99.90
56542;DHT22;42438;53.174;6.730;2022-07-11T11:32:30;19.00;99.90
56542;DHT22;42438;53.174;6.730;2022-07-11T11:35:01;19.10;99.90
56542;DHT22;42438;53.174;6.730;2022-07-11T11:37:34;19.20;99.90
56542;DHT22;42438;53.174;6.730;2022-07-11T11:40:05;19.40;99.90
56542;DHT22;42438;53.174;6.730;2022-07-11T11:42:36;19.50;99.90
56542;DHT22;42438;53.174;6.730;2022-07-11T11:45:07;19.60;99.90
56542;DHT22;42438;53.174;6.730;2022-07-11T11:47:47;19.50;99.90
56542;DHT22;42438;53.174;6.730;2022-07-11T11:50:21;19.60;99.90
56542;DHT22;42438;53.174;6.730;2022-07-11T11:52:52;19.50;99.90
56542;DHT22;42438;53.174;6.730;2022-07-11T11:55:24;19.50;99.90
56542;DHT22;42438;53.174;6.730;2022-07-11T11:57:55;19.50;99.90
56542;DHT22;42438;53.174;6.730;2022-07-11T12:00:25;19.40;99.90
56542;DHT22;42438;53.174;6.730;2022-07-11T12:03:00;19.30;99.90
56542;DHT22;42438;53.174;6.730;2022-07-11T12:05:32;19.50;99.90
56542;DHT22;42438;53.174;6.730;2022-07-11T12:08:04;19.60;99.90
56542;DHT22;42438;53.174;6.730;2022-07-11T12:10:35;19.80;99.90
56542;DHT22;42438;53.174;6.730;2022-07-11T12:13:05;19.80;99.90
56542;DHT22;42438;53.174;6.730;2022-07-11T12:15:36;19.80;99.90
56542;DHT22;42438;53.174;6.730;2022-07-11T12:18:25;19.90;99.90
56542;DHT22;42438;53.174;6.730;2022-07-11T12:21:09;19.80;99.90
56542;DHT22;42438;53.174;6.730;2022-07-11T12:23:41;19.80;99.90
56542;DHT22;42438;53.174;6.730;2022-07-11T12:26:13;19.90;99.90
56542;DHT22;42438;53.174;6.730;2022-07-11T12:31:44;19.90;99.90
56542;DHT22;42438;53.174;6.730;2022-07-11T12:34:20;19.90;99.90
56542;DHT22;42438;53.174;6.730;2022-07-11T12:37:04;19.70;99.90
56542;DHT22;42438;53.174;6.730;2022-07-11T12:39:41;19.60;99.90
56542;DHT22;42438;53.174;6.730;2022-07-11T12:42:27;19.60;99.90
56542;DHT22;42438;53.174;6.730;2022-07-11T12:47:43;19.30;99.90
56542;DHT22;42438;53.174;6.730;2022-07-11T12:52:51;19.10;99.90
56542;DHT22;42438;53.174;6.730;2022-07-11T12:55:29;19.10;99.90
56542;DHT22;42438;53.174;6.730;2022-07-11T12:58:09;19.00;99.90
56542;DHT22;42438;53.174;6.730;2022-07-11T13:00:58;19.00;99.90
56542;DHT22;42438;53.174;6.730;2022-07-11T13:06:01;19.30;99.90
56542;DHT22;42438;53.174;6.730;2022-07-11T13:08:35;19.30;99.90
56542;DHT22;42438;53.174;6.730;2022-07-11T13:11:20;19.40;99.90
56542;DHT22;42438;53.174;6.730;2022-07-11T13:13:51;19.40;99.90
56542;DHT22;42438;53.174;6.730;2022-07-11T13:16:22;19.30;99.90
56542;DHT22;42438;53.174;6.730;2022-07-11T13:18:53;19.20;99.90
56542;DHT22;42438;53.174;6.730;2022-07-11T13:21:23;19.10;99.90
56542;DHT22;42438;53.174;6.730;2022-07-11T13:23:55;19.20;99.90
56542;DHT22;42438;53.174;6.730;2022-07-11T13:26:26;19.40;99.90
56542;DHT22;42438;53.174;6.730;2022-07-11T13:28:56;19.70;99.90
56542;DHT22;42438;53.174;6.730;2022-07-11T13:31:27;19.90;99.90
56542;DHT22;42438;53.174;6.730;2022-07-11T13:33:58;19.90;99.90
56542;DHT22;42438;53.174;6.730;2022-07-11T13:36:28;19.80;99.90
56542;DHT22;42438;53.174;6.730;2022-07-11T13:38:59;19.70;99.90
56542;DHT22;42438;53.174;6.730;2022-07-11T13:41:30;19.80;99.90
56542;DHT22;42438;53.174;6.730;2022-07-11T13:44:01;19.70;99.90
56542;DHT22;42438;53.174;6.730;2022-07-11T13:46:31;19.70;99.90
56542;DHT22;42438;53.174;6.730;2022-07-11T13:49:03;19.70;99.90
56542;DHT22;42438;53.174;6.730;2022-07-11T13:51:33;19.80;99.90
56542;DHT22;42438;53.174;6.730;2022-07-11T13:54:04;19.80;99.90
56542;DHT22;42438;53.174;6.730;2022-07-11T13:56:35;19.70;99.90
56542;DHT22;42438;53.174;6.730;2022-07-11T13:59:06;19.60;99.90
56542;DHT22;42438;53.174;6.730;2022-07-11T14:01:36;19.60;99.90
56542;DHT22;42438;53.174;6.730;2022-07-11T14:04:07;19.50;99.90
56542;DHT22;42438;53.174;6.730;2022-07-11T14:06:38;19.50;99.90
56542;DHT22;42438;53.174;6.730;2022-07-11T14:09:08;19.60;99.90
56542;DHT22;42438;53.174;6.730;2022-07-11T14:11:39;19.70;99.90
56542;DHT22;42438;53.174;6.730;2022-07-11T14:14:10;19.60;99.90
56542;DHT22;42438;53.174;6.730;2022-07-11T14:16:41;19.60;99.90
56542;DHT22;42438;53.174;6.730;2022-07-11T14:19:12;19.60;99.90
56542;DHT22;42438;53.174;6.730;2022-07-11T14:21:43;19.50;99.90
56542;DHT22;42438;53.174;6.730;2022-07-11T14:24:14;19.50;99.90
56542;DHT22;42438;53.174;6.730;2022-07-11T14:26:44;19.50;99.90
56542;DHT22;42438;53.174;6.730;2022-07-11T14:29:16;19.60;99.90
56542;DHT22;42438;53.174;6.730;2022-07-11T14:31:47;19.60;99.90
56542;DHT22;42438;53.174;6.730;2022-07-11T14:34:17;19.70;99.90
56542;DHT22;42438;53.174;6.730;2022-07-11T14:36:48;19.70;99.90
56542;DHT22;42438;53.174;6.730;2022-07-11T14:39:19;19.60;99.90
56542;DHT22;42438;53.174;6.730;2022-07-11T14:41:50;19.60;99.90
56542;DHT22;42438;53.174;6.730;2022-07-11T14:44:21;19.80;99.90
56542;DHT22;42438;53.174;6.730;2022-07-11T14:46:52;19.60;99.90
56542;DHT22;42438;53.174;6.730;2022-07-11T14:49:22;19.50;99.90
56542;DHT22;42438;53.174;6.730;2022-07-11T14:51:53;19.50;99.90
56542;DHT22;42438;53.174;6.730;2022-07-11T14:54:24;19.40;99.90
56542;DHT22;42438;53.174;6.730;2022-07-11T14:56:55;19.50;99.90
56542;DHT22;42438;53.174;6.730;2022-07-11T14:59:25;19.50;99.90
56542;DHT22;42438;53.174;6.730;2022-07-11T15:01:56;19.60;99.90
56542;DHT22;42438;53.174;6.730;2022-07-11T15:04:27;19.70;99.90
56542;DHT22;42438;53.174;6.730;2022-07-11T15:06:57;19.80;99.90
56542;DHT22;42438;53.174;6.730;2022-07-11T15:09:46;20.00;99.90
56542;DHT22;42438;53.174;6.730;2022-07-11T15:12:36;20.20;99.90
56542;DHT22;42438;53.174;6.730;2022-07-11T15:15:09;20.10;99.90
56542;DHT22;42438;53.174;6.730;2022-07-11T15:17:39;20.10;99.90
56542;DHT22;42438;53.174;6.730;2022-07-11T15:20:10;20.00;99.90
56542;DHT22;42438;53.174;6.730;2022-07-11T15:22:41;20.10;99.90
56542;DHT22;42438;53.174;6.730;2022-07-11T15:25:11;20.10;99.90
56542;DHT22;42438;53.174;6.730;2022-07-11T15:27:42;20.10;99.90
56542;DHT22;42438;53.174;6.730;2022-07-11T15:30:13;20.00;99.90
56542;DHT22;42438;53.174;6.730;2022-07-11T15:32:47;19.90;99.90
56542;DHT22;42438;53.174;6.730;2022-07-11T15:35:18;19.90;99.90
56542;DHT22;42438;53.174;6.730;2022-07-11T15:37:49;20.00;99.90
56542;DHT22;42438;53.174;6.730;2022-07-11T15:40:20;20.00;99.90
56542;DHT22;42438;53.174;6.730;2022-07-11T15:42:50;19.90;99.90
56542;DHT22;42438;53.174;6.730;2022-07-11T15:45:21;19.90;99.90
56542;DHT22;42438;53.174;6.730;2022-07-11T15:47:56;19.90;99.90
56542;DHT22;42438;53.174;6.730;2022-07-11T15:50:26;19.90;99.90
56542;DHT22;42438;53.174;6.730;2022-07-11T15:52:57;19.90;99.90
56542;DHT22;42438;53.174;6.730;2022-07-11T15:55:28;19.90;99.90
56542;DHT22;42438;53.174;6.730;2022-07-11T15:57:58;19.80;99.90
56542;DHT22;42438;53.174;6.730;2022-07-11T16:00:29;19.80;99.90
56542;DHT22;42438;53.174;6.730;2022-07-11T16:03:00;19.70;99.90
56542;DHT22;42438;53.174;6.730;2022-07-11T16:05:31;19.60;99.90
56542;DHT22;42438;53.174;6.730;2022-07-11T16:08:02;19.60;99.90
56542;DHT22;42438;53.174;6.730;2022-07-11T16:10:33;19.60;99.90
56542;DHT22;42438;53.174;6.730;2022-07-11T16:13:03;19.60;99.90
56542;DHT22;42438;53.174;6.730;2022-07-11T16:15:34;19.60;99.90
56542;DHT22;42438;53.174;6.730;2022-07-11T16:18:05;19.60;99.90
56542;DHT22;42438;53.174;6.730;2022-07-11T16:20:36;19.60;99.90
56542;DHT22;42438;53.174;6.730;2022-07-11T16:23:08;19.50;99.90
56542;DHT22;42438;53.174;6.730;2022-07-11T16:25:39;19.40;99.90
56542;DHT22;42438;53.174;6.730;2022-07-11T16:28:09;19.40;99.90
56542;DHT22;42438;53.174;6.730;2022-07-11T16:30:40;19.50;99.90
56542;DHT22;42438;53.174;6.730;2022-07-11T16:33:11;19.50;99.90
56542;DHT22;42438;53.174;6.730;2022-07-11T16:35:42;19.50;99.90
56542;DHT22;42438;53.174;6.730;2022-07-11T16:38:13;19.50;99.90
56542;DHT22;42438;53.174;6.730;2022-07-11T16:40:43;19.40;99.90